Joplin, Missouri
Current Conditions -  °F | °C
As of 1:53 AM on Friday 28 Nov 2014 (Local Time) from KJLN Reporting Station
Clear Clear  
Wind Chill: 28°   Ceiling: Unl
Heat Index: 34°   Visibility: 10mi
Dew Point: 23°   Wind: 7mph
Humidity: 64%   Direction: 150°SSE
Pressure: 30.25"   Gusts: NA
Location:  37.09°N, 94.51°W
Report Text: KJLN 280753Z AUTO 15006KT 10SM CLR 01/M05 A3025 RMK AO2 SLP249 T00111050
Loading
Personal Weather Stations






























Interactive Weather Map New forecast layout! Learn more

10-Day Weather Forecast

Advertisements
Track Severe Weather on mobile